Time;durP1;ratioP1;P1;durP2;ratioP2;P2;SDS_P1;SDS_P2;PMS_P1;PMS_P2;Temp;Humidity;BMP_temperature;BMP_pressure;BME280_temperature;BME280_humidity;BME280_pressure;Samples;Min_cycle;Max_cycle;Signal;HPM_P1;HPM_P2
2023/11/10 00:01:48;;;;;;;8.07;6.30;;;;;;;-145.63;53.31;39427.13;5000757;28;20109;-71
2023/11/10 00:04:14;;;;;;;9.68;6.50;;;;;;;-145.63;53.57;39407.56;5011470;28;20053;-71
2023/11/10 00:06:46;;;;;;;9.07;7.03;;;;;;;-145.63;53.69;39415.38;5020782;28;20096;-70
2023/11/10 00:09:14;;;;;;;12.20;7.25;;;;;;;-145.63;54.04;39407.56;4999916;28;20041;-70
2023/11/10 00:11:43;;;;;;;8.35;6.70;;;;;;;-145.63;53.73;39399.75;5003116;28;20097;-71
2023/11/10 00:14:09;;;;;;;8.85;6.93;;;;;;;-145.63;53.34;39450.59;4990347;28;20111;-71
2023/11/10 00:16:34;;;;;;;9.75;7.68;;;;;;;-145.63;53.87;39407.56;4996034;28;20138;-71
2023/11/10 00:19:02;;;;;;;11.57;8.70;;;;;;;-145.63;54.32;39446.69;4999290;28;20023;-70
2023/11/10 00:21:29;;;;;;;11.10;8.65;;;;;;;-145.63;54.42;39419.31;5001107;28;20034;-71
2023/11/10 00:23:55;;;;;;;12.40;8.38;;;;;;;-145.63;54.74;39399.75;5004392;28;20030;-70
2023/11/10 00:26:24;;;;;;;11.93;8.57;;;;;;;-145.63;53.79;39427.13;5004432;28;20081;-70
2023/11/10 00:28:52;;;;;;;11.95;9.35;;;;;;;-145.63;53.73;39431.03;4992798;28;20052;-71
2023/11/10 00:31:21;;;;;;;12.57;8.57;;;;;;;-145.63;54.00;39386.06;4991759;28;20053;-71
2023/11/10 00:33:52;;;;;;;13.25;9.50;;;;;;;-145.63;54.30;39393.88;5000025;28;20089;-71
2023/11/10 00:36:18;;;;;;;10.75;8.90;;;;;;;-145.63;54.30;39421.25;4992544;28;20041;-72
2023/11/10 00:38:45;;;;;;;13.48;9.50;;;;;;;-145.63;54.32;39401.69;5004308;28;20026;-72
2023/11/10 00:41:12;;;;;;;12.18;9.38;;;;;;;-145.63;54.34;39409.53;5014041;28;20099;-72
2023/11/10 00:43:38;;;;;;;11.13;9.00;;;;;;;-145.63;54.19;39393.88;4990504;28;20035;-72
2023/11/10 00:46:04;;;;;;;12.00;8.95;;;;;;;-145.63;54.88;39411.47;4997719;28;20089;-71
2023/11/10 00:48:30;;;;;;;12.68;9.65;;;;;;;-145.63;55.41;39401.69;4991579;28;20069;-71
2023/11/10 00:50:55;;;;;;;14.05;9.07;;;;;;;-145.63;55.15;39399.75;4997481;28;20022;-71
2023/11/10 00:53:22;;;;;;;11.80;9.45;;;;;;;-145.63;55.11;39407.56;4988641;28;20037;-70
2023/11/10 00:55:51;;;;;;;14.40;10.02;;;;;;;-145.63;55.04;39472.09;4987798;28;20033;-70
2023/11/10 00:58:16;;;;;;;13.07;9.93;;;;;;;-145.63;54.95;39397.78;5003559;28;20322;-70
2023/11/10 01:00:42;;;;;;;14.05;10.77;;;;;;;-145.63;55.45;39395.84;5013616;28;20069;-70
2023/11/10 01:03:08;;;;;;;12.45;10.25;;;;;;;-145.63;55.38;39417.34;4988637;28;20030;-71
2023/11/10 01:05:33;;;;;;;15.48;11.63;;;;;;;-145.63;55.49;39391.91;5007967;28;20089;-72
2023/11/10 01:08:00;;;;;;;12.70;11.07;;;;;;;-145.63;54.81;39380.19;5016433;28;20028;-72
2023/11/10 01:10:25;;;;;;;15.05;11.18;;;;;;;-145.63;55.51;39411.47;5002540;28;20250;-72
2023/11/10 01:12:51;;;;;;;16.63;12.80;;;;;;;-145.63;55.33;39399.75;4988488;28;20026;-72
2023/11/10 01:15:17;;;;;;;16.70;13.00;;;;;;;-145.63;55.74;39409.53;5019302;28;20034;-72
2023/11/10 01:17:43;;;;;;;16.83;12.48;;;;;;;-145.63;55.57;39395.84;5002409;28;20101;-72
2023/11/10 01:20:11;;;;;;;18.45;13.35;;;;;;;-145.63;55.34;39405.59;4996551;28;20050;-72
2023/11/10 01:22:38;;;;;;;18.70;13.30;;;;;;;-145.63;54.71;39407.56;5003642;28;20026;-72
2023/11/10 01:25:05;;;;;;;17.48;12.95;;;;;;;-145.63;55.75;39384.09;4990463;28;20026;-73
2023/11/10 01:27:31;;;;;;;18.60;12.55;;;;;;;-145.63;55.47;39401.69;4989908;28;20022;-73
2023/11/10 01:29:57;;;;;;;18.83;13.65;;;;;;;-145.63;55.47;39401.69;4989347;28;20022;-72
2023/11/10 01:32:22;;;;;;;20.95;14.63;;;;;;;-145.63;55.21;39399.75;4996566;28;20112;-71
2023/11/10 01:34:48;;;;;;;22.10;14.68;;;;;;;-145.63;55.69;39366.50;5006594;28;20049;-71
2023/11/10 01:37:14;;;;;;;20.50;14.68;;;;;;;-145.63;56.22;39407.56;5007589;28;20319;-71
2023/11/10 01:39:40;;;;;;;21.98;15.98;;;;;;;-145.63;55.37;39415.38;5007592;28;20183;-71
2023/11/10 01:42:08;;;;;;;20.65;15.00;;;;;;;-145.63;55.09;39433.00;4993113;28;20041;-69
2023/11/10 01:44:35;;;;;;;21.02;14.98;;;;;;;-145.63;55.77;39399.75;5006971;28;20281;-70
2023/11/10 01:47:05;;;;;;;20.25;14.98;;;;;;;-145.63;55.63;39431.03;5018746;28;20038;-70
2023/11/10 01:49:33;;;;;;;20.25;14.45;;;;;;;-145.63;55.16;39409.53;4998604;28;20097;-71
2023/11/10 01:52:01;;;;;;;23.48;14.75;;;;;;;-145.63;54.95;39376.28;4998501;28;20061;-72
2023/11/10 01:54:34;;;;;;;19.67;13.77;;;;;;;-145.63;55.03;39423.22;5004935;28;20026;-71
2023/11/10 01:57:03;;;;;;;20.58;15.00;;;;;;;-145.63;54.88;39425.16;4986107;28;20046;-71
2023/11/10 01:59:30;;;;;;;21.25;15.07;;;;;;;-145.63;54.44;39419.31;4986435;28;20019;-70
2023/11/10 02:01:56;;;;;;;17.75;14.00;;;;;;;-145.63;55.07;39411.47;4992266;28;20022;-70
2023/11/10 02:04:22;;;;;;;19.50;14.20;;;;;;;-145.63;54.43;39411.47;5006723;28;20045;-71
2023/11/10 02:06:48;;;;;;;18.77;14.15;;;;;;;-145.63;54.53;39399.75;4987907;28;20018;-70
2023/11/10 02:09:15;;;;;;;19.67;13.88;;;;;;;-145.63;54.74;39427.13;5002599;28;20313;-71
2023/11/10 02:11:41;;;;;;;19.58;14.02;;;;;;;-145.63;54.99;39411.47;4995949;28;20329;-70
2023/11/10 02:14:09;;;;;;;20.02;15.00;;;;;;;-145.63;54.80;39380.19;4993139;28;20034;-71
2023/11/10 02:16:36;;;;;;;18.50;12.90;;;;;;;-145.63;54.79;39405.59;5005742;28;20364;-72
2023/11/10 02:19:04;;;;;;;22.65;14.18;;;;;;;-145.63;55.20;39378.22;5005636;28;20033;-73
2023/11/10 02:21:50;;;;;;;17.95;13.93;;;;;;;-145.63;55.07;39415.38;4987465;28;20077;-72
2023/11/10 02:24:17;;;;;;;18.40;13.70;;;;;;;-145.63;55.67;39397.78;5003799;28;20034;-71
2023/11/10 02:26:44;;;;;;;21.73;13.27;;;;;;;-145.63;55.00;39421.25;4986229;28;20215;-71
2023/11/10 02:29:10;;;;;;;21.70;13.75;;;;;;;-145.63;54.97;39413.44;5005213;28;20045;-70
2023/11/10 02:31:36;;;;;;;17.98;13.10;;;;;;;-145.63;55.38;39431.03;5007406;28;20029;-70
2023/11/10 02:34:03;;;;;;;17.42;12.32;;;;;;;-145.63;55.24;39427.13;5024733;28;20041;-71
2023/11/10 02:36:29;;;;;;;17.73;12.52;;;;;;;-145.63;55.74;39391.91;5007613;28;20030;-71
2023/11/10 02:38:55;;;;;;;19.15;13.52;;;;;;;-145.63;55.68;39405.59;5006244;28;20186;-71
2023/11/10 02:41:21;;;;;;;19.85;13.02;;;;;;;-145.63;56.13;39530.78;4998785;28;20034;-70
2023/11/10 02:43:47;;;;;;;16.55;11.52;;;;;;;-145.63;56.21;39374.31;4990070;28;20022;-71
2023/11/10 02:46:12;;;;;;;18.58;12.32;;;;;;;-145.63;56.01;39433.00;5005138;28;20026;-69
2023/11/10 02:48:39;;;;;;;15.63;10.57;;;;;;;-145.63;55.95;39395.84;4993531;28;20022;-71
2023/11/10 02:51:05;;;;;;;13.73;11.13;;;;;;;-145.63;55.80;39423.22;5004729;28;20069;-72
2023/11/10 02:53:32;;;;;;;13.20;10.73;;;;;;;-145.63;56.17;39399.75;4995708;28;20045;-71
2023/11/10 02:55:59;;;;;;;15.30;11.32;;;;;;;-145.63;56.26;39415.38;5004720;28;20026;-70
2023/11/10 02:58:24;;;;;;;13.65;10.50;;;;;;;-145.63;56.30;38554.94;4991663;28;20142;-70
2023/11/10 03:00:55;;;;;;;13.70;10.77;;;;;;;-145.63;56.45;39452.53;4985179;28;20303;-70
2023/11/10 03:03:21;;;;;;;16.65;10.57;;;;;;;-145.63;55.87;39407.56;5002370;28;20101;-70
2023/11/10 03:05:46;;;;;;;13.77;11.13;;;;;;;-145.63;56.36;39421.25;4993618;28;20215;-70
2023/11/10 03:08:12;;;;;;;15.90;10.68;;;;;;;-145.63;55.95;39413.44;4991307;28;20045;-70
2023/11/10 03:10:38;;;;;;;12.10;9.35;;;;;;;-145.63;56.86;39403.66;5003898;28;20026;-70
2023/11/10 03:13:04;;;;;;;12.00;9.77;;;;;;;-145.63;56.52;39448.63;4986184;28;20031;-71
2023/11/10 03:15:30;;;;;;;13.18;9.85;;;;;;;-145.63;56.67;39399.75;5002932;28;20041;-72
2023/11/10 03:17:56;;;;;;;14.05;9.63;;;;;;;-145.63;56.64;39415.38;5005424;28;20034;-73
2023/11/10 03:20:23;;;;;;;16.17;10.40;;;;;;;-145.63;56.76;39409.53;4997823;28;20090;-72
2023/11/10 03:22:49;;;;;;;12.00;9.40;;;;;;;-145.63;56.40;39407.56;4989265;28;20042;-72
2023/11/10 03:25:15;;;;;;;14.10;9.70;;;;;;;-145.63;56.76;39409.53;5005614;28;20033;-70
2023/11/10 03:27:41;;;;;;;13.13;9.68;;;;;;;-145.63;56.88;39405.59;4987288;28;20307;-71
2023/11/10 03:30:09;;;;;;;12.38;9.73;;;;;;;-145.63;56.11;39407.56;4999290;28;20354;-70
2023/11/10 03:32:35;;;;;;;13.15;9.30;;;;;;;-145.63;56.55;39399.75;4997423;28;20052;-70
2023/11/10 03:35:00;;;;;;;14.68;9.32;;;;;;;-145.63;56.01;39427.13;5005235;28;20041;-70
2023/11/10 03:37:26;;;;;;;12.70;9.48;;;;;;;-145.63;55.62;39415.38;5005305;28;20093;-71
2023/11/10 03:39:52;;;;;;;12.52;9.18;;;;;;;-145.63;56.21;39407.56;5000698;28;20057;-71
2023/11/10 03:42:18;;;;;;;11.65;9.27;;;;;;;-145.63;55.88;39477.97;5000275;28;20049;-71
2023/11/10 03:44:43;;;;;;;16.55;9.60;;;;;;;-145.63;55.52;39388.00;5003046;28;20101;-71
2023/11/10 03:47:09;;;;;;;16.23;11.93;;;;;;;-145.63;55.41;39456.47;5000456;28;20124;-71
2023/11/10 03:49:37;;;;;;;13.50;9.27;;;;;;;-145.63;55.18;39407.56;4999206;28;20026;-71
2023/11/10 03:52:03;;;;;;;14.02;9.82;;;;;;;-145.63;55.67;39401.69;5004719;28;20045;-71
2023/11/10 03:54:30;;;;;;;15.07;9.98;;;;;;;-145.63;55.05;39423.22;4989049;28;20322;-72
2023/11/10 03:56:56;;;;;;;11.10;9.38;;;;;;;-145.63;55.66;39423.22;4989747;28;20266;-72
2023/11/10 03:59:22;;;;;;;11.43;8.75;;;;;;;-145.63;54.85;39403.66;4986356;28;20030;-71
2023/11/10 04:01:47;;;;;;;13.43;8.70;;;;;;;-145.63;55.46;39405.59;4996095;28;20030;-72
2023/11/10 04:04:13;;;;;;;16.55;10.57;;;;;;;-145.63;54.81;39401.69;4999600;28;20030;-71
2023/11/10 04:06:39;;;;;;;11.95;9.20;;;;;;;-145.63;54.64;39399.75;4992240;28;20336;-71
2023/11/10 04:09:05;;;;;;;12.32;9.30;;;;;;;-145.63;55.25;39382.13;4990183;28;20027;-71
2023/11/10 04:11:30;;;;;;;14.88;10.25;;;;;;;-145.63;55.07;39399.75;4987012;28;20089;-72
2023/11/10 04:13:56;;;;;;;15.60;9.68;;;;;;;-145.63;55.48;39434.94;4987421;28;20035;-72
2023/11/10 04:16:23;;;;;;;15.55;10.30;;;;;;;-145.63;55.50;39405.59;5004264;28;20072;-72
2023/11/10 04:18:50;;;;;;;15.20;9.52;;;;;;;-145.63;55.80;39458.41;5003262;28;20050;-72
2023/11/10 04:21:18;;;;;;;13.07;8.15;;;;;;;-145.63;55.69;39419.31;4990186;28;20023;-72
2023/11/10 04:23:44;;;;;;;11.02;8.25;;;;;;;-145.63;55.70;39274.56;4993768;28;20080;-73
2023/11/10 04:26:10;;;;;;;10.15;7.47;;;;;;;-145.63;55.71;39423.22;5008338;28;20342;-71
2023/11/10 04:28:41;;;;;;;13.38;7.25;;;;;;;-145.63;55.15;39427.13;5005669;28;20030;-71
2023/11/10 04:31:09;;;;;;;10.02;6.95;;;;;;;-145.63;54.98;39413.44;5003024;28;20045;-71
2023/11/10 04:33:36;;;;;;;8.90;6.90;;;;;;;-145.63;55.95;39389.97;4986388;28;20069;-71
2023/11/10 04:36:07;;;;;;;8.20;6.75;;;;;;;-145.63;56.03;39409.53;4997400;28;20354;-72
2023/11/10 04:38:33;;;;;;;7.47;6.30;;;;;;;-145.63;55.73;39431.03;5002432;28;20045;-71
2023/11/10 04:41:01;;;;;;;8.45;6.57;;;;;;;-145.63;54.99;39425.16;4996665;28;20026;-72
2023/11/10 04:43:26;;;;;;;9.68;6.30;;;;;;;-145.63;54.72;39423.22;5004110;28;20038;-74
2023/11/10 04:45:52;;;;;;;9.20;6.10;;;;;;;-145.63;55.03;39436.91;4984747;28;20031;-71
2023/11/10 04:48:18;;;;;;;11.00;6.35;;;;;;;-145.63;55.17;39434.94;4992805;28;20200;-71
2023/11/10 04:50:44;;;;;;;7.57;5.88;;;;;;;-145.63;55.38;39415.38;5003752;28;20033;-73
2023/11/10 04:53:09;;;;;;;9.02;6.07;;;;;;;-145.63;54.84;39411.47;4998663;28;20046;-73
2023/11/10 04:55:35;;;;;;;8.45;5.80;;;;;;;-145.63;55.65;39423.22;4987417;28;20034;-73
2023/11/10 04:58:01;;;;;;;7.75;5.50;;;;;;;-145.63;55.06;39442.78;4998034;28;20230;-72
2023/11/10 05:00:27;;;;;;;8.43;5.55;;;;;;;-145.63;54.84;39438.84;4988286;28;20196;-72
2023/11/10 05:02:53;;;;;;;5.93;5.28;;;;;;;-145.63;54.86;39434.94;4990654;28;20031;-71
2023/11/10 05:05:20;;;;;;;5.65;5.03;;;;;;;-145.63;54.28;39429.06;4998337;28;20044;-72
2023/11/10 05:07:46;;;;;;;8.27;5.25;;;;;;;-145.63;54.16;39433.00;4995598;28;20283;-73
2023/11/10 05:10:15;;;;;;;5.80;5.20;;;;;;;-145.63;54.18;39419.31;5006453;28;20052;-71
2023/11/10 05:12:41;;;;;;;11.00;5.10;;;;;;;-145.63;54.27;39425.16;5003395;28;20038;-73
2023/11/10 05:15:08;;;;;;;6.00;5.40;;;;;;;-145.63;53.57;39434.94;4990817;28;20043;-71
2023/11/10 05:17:44;;;;;;;7.45;5.95;;;;;;;-145.63;54.15;39444.72;5010935;28;20030;-72
2023/11/10 05:20:14;;;;;;;6.18;5.45;;;;;;;-145.63;53.58;39417.34;5017837;28;20034;-73
2023/11/10 05:22:42;;;;;;;7.13;4.88;;;;;;;-145.63;53.49;39548.38;5003681;28;20030;-72
2023/11/10 05:25:08;;;;;;;6.20;5.03;;;;;;;-145.63;53.69;39419.31;5002426;28;20030;-72
2023/11/10 05:27:34;;;;;;;7.20;5.30;;;;;;;-145.63;53.57;39417.34;4986104;28;20038;-73
2023/11/10 05:30:01;;;;;;;9.77;5.13;;;;;;;-145.63;53.21;39386.06;4995468;28;20030;-73
2023/11/10 05:32:27;;;;;;;7.30;5.65;;;;;;;-145.63;53.57;39431.03;4996355;28;20295;-72
2023/11/10 05:34:54;;;;;;;6.45;5.50;;;;;;;-145.63;53.38;39417.34;4986434;28;20031;-72
2023/11/10 05:37:20;;;;;;;9.60;5.88;;;;;;;-145.63;53.21;39233.50;5003646;28;20026;-72
2023/11/10 05:39:47;;;;;;;9.50;5.85;;;;;;;-145.63;53.93;39388.00;5003494;28;20086;-71
2023/11/10 05:42:13;;;;;;;10.25;5.80;;;;;;;-145.63;53.44;39438.84;4990380;28;20069;-72
2023/11/10 05:44:40;;;;;;;12.57;5.93;;;;;;;-145.63;53.43;39433.00;4992472;28;20350;-72
2023/11/10 05:47:06;;;;;;;10.43;5.75;;;;;;;-145.63;52.71;39417.34;4999188;28;20039;-72
2023/11/10 05:49:33;;;;;;;8.68;5.30;;;;;;;-145.63;53.13;39425.16;4995998;28;20206;-71
2023/11/10 05:51:59;;;;;;;14.30;6.00;;;;;;;-145.63;52.42;39540.56;5002844;28;20038;-72
2023/11/10 05:54:25;;;;;;;10.75;6.22;;;;;;;-145.63;53.02;39452.53;4987622;28;20023;-73
2023/11/10 05:56:55;;;;;;;9.07;6.03;;;;;;;-145.63;52.61;39450.59;4995966;28;20026;-73
2023/11/10 05:59:23;;;;;;;10.75;6.00;;;;;;;-145.63;53.13;39423.22;4997040;28;20058;-71
2023/11/10 06:01:49;;;;;;;8.30;5.53;;;;;;;-145.63;53.38;39419.31;4985255;28;20046;-73
2023/11/10 06:04:15;;;;;;;8.85;6.35;;;;;;;-145.63;52.75;39391.91;5001955;28;20037;-73
2023/11/10 06:06:44;;;;;;;7.97;5.90;;;;;;;-145.63;53.17;39409.53;4986153;28;20027;-73
2023/11/10 06:09:11;;;;;;;5.68;5.07;;;;;;;-145.63;52.51;39427.13;4998249;28;20053;-72
2023/11/10 06:11:37;;;;;;;6.75;4.72;;;;;;;-145.63;51.18;39421.25;5014909;28;20037;-72
2023/11/10 06:14:03;;;;;;;9.52;4.90;;;;;;;-145.63;51.54;39423.22;5026329;28;20340;-72
2023/11/10 06:16:30;;;;;;;5.35;4.72;;;;;;;-145.63;51.41;39399.75;5015897;28;20089;-72
2023/11/10 06:18:56;;;;;;;7.53;5.00;;;;;;;-145.63;51.52;39423.22;5005297;28;20234;-74
2023/11/10 06:21:23;;;;;;;6.55;4.75;;;;;;;-145.63;52.27;39427.13;4999570;28;20037;-73
2023/11/10 06:23:50;;;;;;;9.10;5.15;;;;;;;-145.63;51.65;39421.25;5006717;28;20046;-73
2023/11/10 06:26:17;;;;;;;13.25;8.15;;;;;;;-145.63;51.95;39415.38;5011726;28;20057;-73
2023/11/10 06:28:43;;;;;;;6.47;5.13;;;;;;;-145.63;51.52;39415.38;5026403;28;20030;-73
2023/11/10 06:31:10;;;;;;;6.43;4.68;;;;;;;-145.63;50.78;39425.16;5008803;28;20133;-72
2023/11/10 06:33:38;;;;;;;10.88;5.20;;;;;;;-145.63;51.14;39427.13;4990802;28;20113;-73
2023/11/10 06:36:04;;;;;;;6.78;5.35;;;;;;;-145.63;50.80;39411.47;4985800;28;20065;-73
2023/11/10 06:38:30;;;;;;;11.88;5.70;;;;;;;-145.63;51.10;39438.84;4994492;28;20082;-73
2023/11/10 06:40:56;;;;;;;6.30;5.35;;;;;;;-145.63;50.85;39364.53;5002282;28;20134;-73
2023/11/10 06:43:21;;;;;;;11.93;5.80;;;;;;;-145.63;50.26;39366.50;4985586;28;20027;-73
2023/11/10 06:45:48;;;;;;;8.65;5.10;;;;;;;-145.63;50.02;39413.44;5003792;28;20038;-72
2023/11/10 06:48:15;;;;;;;6.90;4.80;;;;;;;-145.63;50.74;39403.66;4994964;28;20077;-73
2023/11/10 06:50:42;;;;;;;10.80;5.38;;;;;;;-145.63;50.85;39419.31;5014263;28;20195;-72
2023/11/10 06:53:10;;;;;;;7.38;5.63;;;;;;;-145.63;50.16;39411.47;5015169;28;20027;-72
2023/11/10 06:55:37;;;;;;;7.05;5.20;;;;;;;-145.63;50.48;39393.88;4996411;28;20069;-73
2023/11/10 06:58:03;;;;;;;9.80;5.85;;;;;;;-145.63;49.86;39427.13;5005115;28;20338;-73
2023/11/10 07:00:30;;;;;;;8.13;5.30;;;;;;;-145.63;49.63;39421.25;4989688;28;20035;-73
2023/11/10 07:02:56;;;;;;;12.10;5.70;;;;;;;-145.63;50.67;39325.41;4994087;28;20030;-73
2023/11/10 07:05:25;;;;;;;8.88;6.03;;;;;;;-145.63;50.54;39364.53;4990544;28;20222;-73
2023/11/10 07:07:54;;;;;;;7.53;5.63;;;;;;;-145.63;50.05;39419.31;4997520;28;20058;-72
2023/11/10 07:10:21;;;;;;;7.38;5.72;;;;;;;-145.63;49.82;39391.91;4994571;28;20038;-71
2023/11/10 07:12:47;;;;;;;7.68;6.32;;;;;;;-145.63;49.57;39372.34;4998786;28;20054;-73
2023/11/10 07:15:12;;;;;;;9.32;5.45;;;;;;;-145.63;50.49;39368.44;5001301;28;20048;-72
2023/11/10 07:17:38;;;;;;;8.95;5.72;;;;;;;-145.63;49.21;39372.34;4993793;28;20034;-73
2023/11/10 07:20:10;;;;;;;8.27;5.30;;;;;;;-145.63;49.47;39382.13;5002151;28;20022;-72
2023/11/10 07:22:36;;;;;;;8.00;6.05;;;;;;;-145.63;49.81;39389.97;5001902;28;20069;-72
2023/11/10 07:25:03;;;;;;;8.60;5.50;;;;;;;-145.63;49.19;39190.47;5003957;28;20088;-74
2023/11/10 07:27:30;;;;;;;10.00;5.63;;;;;;;-145.63;49.27;39350.84;4992149;28;20018;-74
2023/11/10 07:29:56;;;;;;;12.15;5.43;;;;;;;-145.63;49.16;39366.50;4996131;28;20329;-74
2023/11/10 07:32:23;;;;;;;10.25;5.47;;;;;;;-145.63;49.15;39389.97;5000544;28;20039;-73
2023/11/10 07:34:50;;;;;;;8.93;6.07;;;;;;;-145.63;48.58;39376.28;4994279;28;20106;-74
2023/11/10 07:37:16;;;;;;;8.18;5.53;;;;;;;-145.63;49.01;39374.31;5004208;28;20022;-72
2023/11/10 07:39:41;;;;;;;11.63;5.60;;;;;;;-145.63;49.67;39388.00;4988090;28;20061;-72
2023/11/10 07:42:07;;;;;;;10.85;6.40;;;;;;;-145.63;49.17;39391.91;4996971;28;20026;-73
2023/11/10 07:44:34;;;;;;;9.82;6.68;;;;;;;-145.63;49.83;39380.19;5003613;28;20033;-73
2023/11/10 07:47:01;;;;;;;10.80;6.22;;;;;;;-145.63;49.42;39376.28;5001131;28;20065;-73
2023/11/10 07:49:27;;;;;;;8.45;5.65;;;;;;;-145.63;48.97;39384.09;4999725;28;20034;-73
2023/11/10 07:51:54;;;;;;;6.30;5.30;;;;;;;-145.63;48.81;39517.09;5004640;28;20065;-73
2023/11/10 07:54:23;;;;;;;8.50;5.80;;;;;;;-145.63;48.70;39388.00;4996256;28;20059;-73
2023/11/10 07:56:50;;;;;;;10.63;5.25;;;;;;;-145.63;49.33;39433.00;4994252;28;20094;-74
2023/11/10 07:59:16;;;;;;;9.43;5.50;;;;;;;-145.63;49.68;39376.28;4989487;28;20022;-71
2023/11/10 08:01:43;;;;;;;11.38;5.45;;;;;;;-145.63;49.42;39341.06;4991696;28;20037;-73
2023/11/10 08:04:12;;;;;;;5.68;5.18;;;;;;;-145.63;49.07;39325.41;5000498;28;20038;-71
2023/11/10 08:06:38;;;;;;;9.55;5.63;;;;;;;-145.63;49.39;39344.97;4995191;28;20041;-72
2023/11/10 08:09:04;;;;;;;8.25;5.32;;;;;;;-145.63;49.07;39356.72;4997862;28;20321;-72
2023/11/10 08:11:31;;;;;;;8.32;4.75;;;;;;;-145.63;49.64;39360.63;4991204;28;20202;-73
2023/11/10 08:13:57;;;;;;;9.50;4.72;;;;;;;-145.63;48.83;39370.41;5004872;28;20346;-73
2023/11/10 08:16:23;;;;;;;7.72;5.35;;;;;;;-145.63;49.45;39350.84;5010548;28;20041;-71
2023/11/10 08:18:50;;;;;;;9.88;5.82;;;;;;;-145.63;49.29;39372.34;5004377;28;20030;-72
2023/11/10 08:21:19;;;;;;;10.38;5.78;;;;;;;-145.63;49.01;39325.41;4992325;28;20247;-72
2023/11/10 08:23:45;;;;;;;11.75;5.63;;;;;;;-145.63;48.11;39354.75;4992870;28;20030;-73
2023/11/10 08:26:11;;;;;;;9.00;5.65;;;;;;;-145.63;48.85;39409.53;4999725;28;20037;-73
2023/11/10 08:28:36;;;;;;;9.18;6.00;;;;;;;-145.63;48.83;39364.53;4995216;28;20061;-73
2023/11/10 08:31:02;;;;;;;6.65;5.45;;;;;;;-145.63;48.27;39145.50;4987770;28;20447;-73
2023/11/10 08:33:28;;;;;;;11.18;6.60;;;;;;;-145.63;48.59;39364.53;4992447;28;20238;-72
2023/11/10 08:35:54;;;;;;;9.55;7.10;;;;;;;-145.63;48.54;39356.72;5004172;28;20038;-72
2023/11/10 08:38:20;;;;;;;11.93;7.22;;;;;;;-145.63;49.15;39391.91;4997748;28;20047;-74
2023/11/10 08:40:46;;;;;;;11.68;6.68;;;;;;;-145.63;49.48;39384.09;5000787;28;20038;-74
2023/11/10 08:43:12;;;;;;;12.18;6.53;;;;;;;-145.63;49.50;39395.84;5003585;28;20041;-74
2023/11/10 08:45:38;;;;;;;11.82;6.40;;;;;;;-145.63;49.68;39362.59;4989153;28;20030;-75
2023/11/10 08:48:04;;;;;;;9.05;6.10;;;;;;;-145.63;49.62;39356.72;4994618;28;20053;-74
2023/11/10 08:50:30;;;;;;;11.85;6.65;;;;;;;-145.63;49.90;39423.22;5003994;28;20275;-73
2023/11/10 08:52:56;;;;;;;12.35;7.07;;;;;;;-145.63;49.76;39348.88;4993228;28;20035;-73
2023/11/10 08:55:23;;;;;;;9.45;6.25;;;;;;;-145.63;49.67;39386.06;5000688;28;20032;-73
2023/11/10 08:57:49;;;;;;;10.57;5.60;;;;;;;-145.63;49.74;39364.53;4997598;28;20038;-73
2023/11/10 09:00:17;;;;;;;10.52;5.63;;;;;;;-145.63;49.38;39384.09;5003781;28;20026;-72
2023/11/10 09:02:44;;;;;;;10.57;5.85;;;;;;;-145.63;49.44;39364.53;5011326;28;20033;-71
2023/11/10 09:05:12;;;;;;;11.07;6.15;;;;;;;-145.63;49.76;39366.50;5020294;28;20042;-72
2023/11/10 09:07:41;;;;;;;10.05;6.22;;;;;;;-145.63;49.11;38926.47;5004011;28;20030;-74
2023/11/10 09:10:10;;;;;;;7.60;5.68;;;;;;;-145.63;49.36;39352.81;4986767;28;20092;-74
2023/11/10 09:12:35;;;;;;;6.32;5.55;;;;;;;-145.63;49.03;39546.44;4992346;28;20045;-73
2023/11/10 09:15:03;;;;;;;7.65;5.68;;;;;;;-145.63;48.79;39403.66;4994512;28;20034;-73
2023/11/10 09:17:31;;;;;;;7.70;6.32;;;;;;;-145.63;49.16;39364.53;4997677;28;20096;-74
2023/11/10 09:19:57;;;;;;;11.30;6.82;;;;;;;-145.63;49.29;39378.22;4984819;28;20343;-73
2023/11/10 09:22:23;;;;;;;8.90;6.43;;;;;;;-145.63;48.94;39360.63;5003692;28;20034;-73
2023/11/10 09:24:49;;;;;;;8.40;5.60;;;;;;;-145.63;49.76;39360.63;4986281;28;20030;-73
2023/11/10 09:27:14;;;;;;;10.35;6.32;;;;;;;-145.63;48.88;39368.44;4988180;28;20059;-72
2023/11/10 09:29:40;;;;;;;10.35;5.93;;;;;;;-145.63;49.15;39407.56;4994976;28;20077;-73
2023/11/10 09:32:10;;;;;;;8.40;6.13;;;;;;;-145.63;49.40;38991.00;4985025;28;20057;-73
2023/11/10 09:34:40;;;;;;;6.33;5.77;;;;;;;-145.63;49.65;39372.34;4994482;28;20038;-73
2023/11/10 09:37:06;;;;;;;10.90;6.38;;;;;;;-145.63;48.66;39315.66;4999668;28;20426;-73
2023/11/10 09:39:33;;;;;;;8.25;5.95;;;;;;;-145.63;48.88;39356.72;5000176;28;20094;-72
2023/11/10 09:42:06;;;;;;;13.73;6.65;;;;;;;-145.63;48.77;39393.88;5001631;28;20068;-72
2023/11/10 09:44:37;;;;;;;10.07;5.88;;;;;;;-145.63;48.54;39356.72;5001075;28;20023;-73
2023/11/10 09:47:03;;;;;;;10.40;6.43;;;;;;;-145.63;48.60;39393.88;4993995;28;20226;-73
2023/11/10 09:49:30;;;;;;;8.07;6.30;;;;;;;-145.63;48.77;39386.06;5005312;28;20041;-72
2023/11/10 09:51:57;;;;;;;9.40;6.43;;;;;;;-145.63;48.46;39368.44;4999486;28;20037;-73
2023/11/10 09:54:23;;;;;;;10.52;6.75;;;;;;;-145.63;48.59;39380.19;4998484;28;20303;-73
2023/11/10 09:56:50;;;;;;;10.90;6.85;;;;;;;-145.63;48.79;39388.00;4999215;28;20089;-73
2023/11/10 09:59:16;;;;;;;9.35;6.18;;;;;;;-145.63;48.46;39415.38;4997012;28;20338;-72
2023/11/10 10:01:45;;;;;;;13.15;7.20;;;;;;;-145.63;48.50;39374.31;4995546;28;20026;-73
2023/11/10 10:04:11;;;;;;;9.40;6.30;;;;;;;-145.63;48.95;39384.09;5004930;28;20030;-72
2023/11/10 10:06:38;;;;;;;10.27;6.57;;;;;;;-145.63;49.42;39344.97;5008338;28;20033;-72
2023/11/10 10:09:04;;;;;;;13.25;7.30;;;;;;;-145.63;48.67;39393.88;4996483;28;20034;-72
2023/11/10 10:11:32;;;;;;;14.88;6.63;;;;;;;-145.63;49.26;39403.66;4995176;28;20030;-72
2023/11/10 10:13:57;;;;;;;11.35;7.25;;;;;;;-145.63;48.87;39415.38;4996120;28;20334;-75
2023/11/10 10:16:23;;;;;;;9.48;7.10;;;;;;;-145.63;48.27;39403.66;4999288;28;20330;-73
2023/11/10 10:18:54;;;;;;;10.00;6.78;;;;;;;-145.63;48.60;39438.84;5005029;28;20053;-72
2023/11/10 10:21:20;;;;;;;15.98;7.90;;;;;;;-145.63;48.60;39415.38;4998634;28;20061;-72
2023/11/10 10:23:48;;;;;;;12.70;7.18;;;;;;;-145.63;48.33;39393.88;5002823;28;20328;-74
2023/11/10 10:26:15;;;;;;;9.15;7.20;;;;;;;-145.63;48.98;39372.34;5002211;28;20114;-73
2023/11/10 10:28:43;;;;;;;11.95;7.15;;;;;;;-145.63;48.84;39397.78;4991916;28;20022;-73
2023/11/10 10:31:11;;;;;;;10.35;7.38;;;;;;;-145.63;49.38;39378.22;4985495;28;20058;-73
2023/11/10 10:33:36;;;;;;;9.40;7.20;;;;;;;-145.63;49.36;39380.19;4988996;28;20118;-73
2023/11/10 10:36:03;;;;;;;15.13;7.57;;;;;;;-145.63;49.28;39388.00;5003691;28;20076;-73
2023/11/10 10:38:32;;;;;;;10.25;6.97;;;;;;;-145.63;49.87;39403.66;5001538;28;20031;-74
2023/11/10 10:41:01;;;;;;;9.60;7.10;;;;;;;-145.63;49.50;39436.91;4986804;28;20026;-75
2023/11/10 10:43:29;;;;;;;8.43;6.95;;;;;;;-145.63;49.27;39391.91;5005997;28;20074;-74
2023/11/10 10:45:55;;;;;;;12.10;6.82;;;;;;;-145.63;49.51;39388.00;4999897;28;20026;-74
2023/11/10 10:48:21;;;;;;;10.05;7.30;;;;;;;-145.63;49.22;39378.22;5006065;28;20077;-73
2023/11/10 10:50:49;;;;;;;12.05;7.45;;;;;;;-145.63;49.66;39386.06;5005999;28;20041;-74
2023/11/10 10:53:19;;;;;;;10.55;7.18;;;;;;;-145.63;48.62;39407.56;5003198;28;20026;-74
2023/11/10 10:55:50;;;;;;;18.55;7.97;;;;;;;-145.63;48.69;39389.97;4990635;28;20065;-73
2023/11/10 10:58:20;;;;;;;12.45;7.25;;;;;;;-145.63;49.08;39393.88;5005837;28;20032;-73
2023/11/10 11:00:46;;;;;;;13.45;7.82;;;;;;;-145.63;48.82;39409.53;4991016;28;20086;-72
2023/11/10 11:03:31;;;;;;;20.05;8.57;;;;;;;-145.63;48.79;39405.59;4991077;28;20035;-73
2023/11/10 11:06:28;;;;;;;14.02;8.23;;;;;;;-145.63;49.30;39391.91;4994098;28;20030;-72
2023/11/10 11:09:20;;;;;;;11.35;7.95;;;;;;;-145.63;49.09;39427.13;4997708;28;20026;-71